createdAt,value
2022-09-18T00:00:52.451Z,7.52
2022-09-18T00:01:52.616Z,7.6
2022-09-18T00:02:52.716Z,7.52
2022-09-18T00:03:52.822Z,7.6
2022-09-18T00:04:52.926Z,7.52
2022-09-18T00:05:53.078Z,7.6
2022-09-18T00:06:53.179Z,7.68
2022-09-18T00:07:53.329Z,7.84
2022-09-18T00:08:53.477Z,7.6
2022-09-18T00:09:53.590Z,7.6
2022-09-18T00:10:53.737Z,7.6
2022-09-18T00:11:53.890Z,7.52
2022-09-18T00:12:54.046Z,7.52
2022-09-18T00:13:54.190Z,7.6
2022-09-18T00:14:54.391Z,7.6
2022-09-18T00:15:54.565Z,7.68
2022-09-18T00:16:54.691Z,7.6
2022-09-18T00:17:54.832Z,7.6
2022-09-18T00:18:54.952Z,7.68
2022-09-18T00:19:55.105Z,7.6
2022-09-18T00:20:55.251Z,7.52
2022-09-18T00:21:55.399Z,7.6
2022-09-18T00:22:55.555Z,7.6
2022-09-18T00:23:55.703Z,7.52
2022-09-18T00:24:55.811Z,7.6
2022-09-18T00:25:55.961Z,7.52
2022-09-18T00:26:56.064Z,7.6
2022-09-18T00:27:56.167Z,7.52
2022-09-18T00:28:56.315Z,7.52
2022-09-18T00:29:56.426Z,7.6
2022-09-18T00:30:56.578Z,7.52
2022-09-18T00:31:56.716Z,7.6
2022-09-18T00:32:56.883Z,7.6
2022-09-18T00:33:56.984Z,7.6
2022-09-18T00:34:57.149Z,7.52
2022-09-18T00:35:57.293Z,7.6
2022-09-18T00:36:57.428Z,7.6
2022-09-18T00:37:57.579Z,7.52
2022-09-18T00:38:57.734Z,7.52
2022-09-18T00:39:57.907Z,7.52
2022-09-18T00:40:58.036Z,7.52
2022-09-18T00:41:58.140Z,7.6
2022-09-18T00:42:58.291Z,7.52
2022-09-18T00:43:58.440Z,7.52
2022-09-18T00:44:58.592Z,7.52
2022-09-18T00:45:58.735Z,7.6
2022-09-18T00:46:58.954Z,7.68
2022-09-18T00:47:59.060Z,7.6
2022-09-18T00:48:59.191Z,7.6
2022-09-18T00:49:59.354Z,7.6
2022-09-18T00:50:59.502Z,7.6
2022-09-18T00:51:59.665Z,7.6
2022-09-18T00:52:59.803Z,7.52
2022-09-18T00:54:00.041Z,7.52
2022-09-18T00:55:00.117Z,7.52
2022-09-18T00:56:00.264Z,7.52
2022-09-18T00:57:00.364Z,7.52
2022-09-18T00:58:00.504Z,7.52
2022-09-18T00:59:00.657Z,7.52
2022-09-18T01:00:00.830Z,7.52
2022-09-18T01:01:01.000Z,7.52
2022-09-18T01:02:01.212Z,7.52
2022-09-18T01:03:01.279Z,7.52
2022-09-18T01:04:01.421Z,7.52
2022-09-18T01:05:01.578Z,7.44
2022-09-18T01:06:01.740Z,7.52
2022-09-18T01:07:01.829Z,7.52
2022-09-18T01:08:01.981Z,7.52
2022-09-18T01:09:02.259Z,7.52
2022-09-18T01:10:02.282Z,7.44
2022-09-18T01:11:02.394Z,7.44
2022-09-18T01:12:02.529Z,7.52
2022-09-18T01:13:02.630Z,7.52
2022-09-18T01:14:02.780Z,7.52
2022-09-18T01:15:02.902Z,7.52
2022-09-18T01:16:03.054Z,7.44
2022-09-18T01:17:03.193Z,7.6
2022-09-18T01:18:03.348Z,7.44
2022-09-18T01:19:03.495Z,7.52
2022-09-18T01:20:03.653Z,7.52
2022-09-18T01:21:03.794Z,7.44
2022-09-18T01:22:03.899Z,7.52
2022-09-18T01:23:04.059Z,7.44
2022-09-18T01:24:04.165Z,7.52
2022-09-18T01:25:04.306Z,7.52
2022-09-18T01:26:04.468Z,7.52
2022-09-18T01:27:04.616Z,7.52
2022-09-18T01:28:04.757Z,7.44
2022-09-18T01:29:04.870Z,7.52
2022-09-18T01:30:05.017Z,7.52
2022-09-18T01:31:05.227Z,7.44
2022-09-18T01:32:05.332Z,7.44
2022-09-18T01:33:05.482Z,7.44
2022-09-18T01:34:05.619Z,7.44
2022-09-18T01:35:10.086Z,7.44
2022-09-18T01:36:05.932Z,7.44
2022-09-18T01:37:06.092Z,7.44
2022-09-18T01:38:06.247Z,7.44
2022-09-18T01:39:06.393Z,7.44
2022-09-18T01:40:06.532Z,7.44
2022-09-18T01:41:06.641Z,7.52
2022-09-18T01:42:06.747Z,7.44
2022-09-18T01:43:06.895Z,7.44
2022-09-18T01:44:07.046Z,7.44
2022-09-18T01:45:07.202Z,7.44
2022-09-18T01:46:07.383Z,7.44
2022-09-18T01:47:07.438Z,7.44
2022-09-18T01:48:07.603Z,7.44
2022-09-18T01:49:07.709Z,7.28
2022-09-18T01:50:07.854Z,7.44
2022-09-18T01:51:08.010Z,7.44
2022-09-18T01:52:08.165Z,7.52
2022-09-18T01:53:08.321Z,7.52
2022-09-18T01:54:08.467Z,7.52
2022-09-18T01:55:08.613Z,7.52
2022-09-18T01:56:08.782Z,7.6
2022-09-18T01:57:08.927Z,7.44
2022-09-18T01:58:09.070Z,7.44
2022-09-18T01:59:09.224Z,7.52
2022-09-18T02:00:09.369Z,7.44
2022-09-18T02:01:09.569Z,7.44
2022-09-18T02:02:09.747Z,7.44
2022-09-18T02:03:09.832Z,7.44
2022-09-18T02:04:09.920Z,7.44
2022-09-18T02:05:10.089Z,7.44
2022-09-18T02:06:10.238Z,7.44
2022-09-18T02:07:10.338Z,7.44
2022-09-18T02:08:10.488Z,7.44
2022-09-18T02:09:10.636Z,7.6
2022-09-18T02:10:10.790Z,7.52
2022-09-18T02:11:10.949Z,7.44
2022-09-18T02:12:11.106Z,7.44
2022-09-18T02:13:11.255Z,7.44
2022-09-18T02:14:11.352Z,7.28
2022-09-18T02:15:11.463Z,7.52
2022-09-18T02:16:11.581Z,7.44
2022-09-18T02:17:11.713Z,7.52
2022-09-18T02:18:11.848Z,7.44
2022-09-18T02:19:11.952Z,7.44
2022-09-18T02:20:12.048Z,7.6
2022-09-18T02:21:12.211Z,7.6
2022-09-18T02:22:12.369Z,7.6
2022-09-18T02:23:12.514Z,7.6
2022-09-18T02:24:12.677Z,7.6
2022-09-18T02:25:12.821Z,7.52
2022-09-18T02:26:12.971Z,7.52
2022-09-18T02:27:13.123Z,7.6
2022-09-18T02:28:13.249Z,7.44
2022-09-18T02:29:13.433Z,7.52
2022-09-18T02:30:13.552Z,7.6
2022-09-18T02:31:13.686Z,7.52
2022-09-18T02:32:13.834Z,7.52
2022-09-18T02:33:13.993Z,7.52
2022-09-18T02:34:14.091Z,7.52
2022-09-18T02:35:14.251Z,7.44
2022-09-18T02:36:14.379Z,7.6
2022-09-18T02:37:14.877Z,7.52
2022-09-18T02:38:14.682Z,7.68
2022-09-18T02:39:14.791Z,7.68
2022-09-18T02:40:14.924Z,7.6
2022-09-18T02:41:15.046Z,7.52
2022-09-18T02:42:15.200Z,7.52
2022-09-18T02:43:15.291Z,7.6
2022-09-18T02:44:15.450Z,7.52
2022-09-18T02:45:15.614Z,7.52
2022-09-18T02:46:15.780Z,7.52
2022-09-18T02:47:15.948Z,7.52
2022-09-18T02:48:16.155Z,7.52
2022-09-18T02:49:16.251Z,7.6
2022-09-18T02:50:16.353Z,7.6
2022-09-18T02:51:16.507Z,7.52
2022-09-18T02:52:16.667Z,7.52
2022-09-18T02:53:16.818Z,7.52
2022-09-18T02:54:16.967Z,7.52
2022-09-18T02:55:17.120Z,7.6
2022-09-18T02:56:17.263Z,7.52
2022-09-18T02:57:17.381Z,7.52
2022-09-18T02:58:17.525Z,7.44
2022-09-18T02:59:17.689Z,7.44
2022-09-18T03:00:17.826Z,7.44
2022-09-18T03:01:18.076Z,7.44
2022-09-18T03:02:18.317Z,7.44
2022-09-18T03:03:18.249Z,7.52
2022-09-18T03:04:18.399Z,7.52
2022-09-18T03:05:18.531Z,7.44
2022-09-18T03:06:18.693Z,7.52
2022-09-18T03:07:18.798Z,7.68
2022-09-18T03:08:18.947Z,7.6
2022-09-18T03:09:19.097Z,7.52
2022-09-18T03:10:19.207Z,7.52
2022-09-18T03:11:19.308Z,7.44
2022-09-18T03:12:19.438Z,7.44
2022-09-18T03:13:19.603Z,7.44
2022-09-18T03:14:19.746Z,7.28
2022-09-18T03:15:19.907Z,7.44
2022-09-18T03:16:20.137Z,7.44
2022-09-18T03:17:20.208Z,7.44
2022-09-18T03:18:20.368Z,7.52
2022-09-18T03:19:20.526Z,7.52
2022-09-18T03:20:20.708Z,7.52
2022-09-18T03:21:20.793Z,7.52
2022-09-18T03:22:20.984Z,7.52
2022-09-18T03:23:21.063Z,7.52
2022-09-18T03:24:21.227Z,7.52
2022-09-18T03:25:21.370Z,7.52
2022-09-18T03:26:21.522Z,7.44
2022-09-18T03:27:21.677Z,7.44
2022-09-18T03:28:21.827Z,7.44
2022-09-18T03:29:21.936Z,7.52
2022-09-18T03:30:22.084Z,7.52
2022-09-18T03:31:22.281Z,7.52
2022-09-18T03:32:22.375Z,7.44
2022-09-18T03:33:22.546Z,7.6
2022-09-18T03:34:22.680Z,7.6
2022-09-18T03:35:22.829Z,7.52
2022-09-18T03:36:23.003Z,7.6
2022-09-18T03:37:23.135Z,7.44
2022-09-18T03:38:23.314Z,7.44
2022-09-18T03:39:23.448Z,7.44
2022-09-18T03:40:23.656Z,7.44
2022-09-18T03:41:23.755Z,7.44
2022-09-18T03:42:23.903Z,7.44
2022-09-18T03:43:24.054Z,7.44
2022-09-18T03:44:24.209Z,7.52
2022-09-18T03:45:24.358Z,7.52
2022-09-18T03:46:24.617Z,7.52
2022-09-18T03:47:24.616Z,7.6
2022-09-18T03:48:25.150Z,7.6
2022-09-18T03:49:24.870Z,7.52
2022-09-18T03:50:25.028Z,7.52
2022-09-18T03:51:25.169Z,7.44
2022-09-18T03:52:25.326Z,7.44
2022-09-18T03:53:25.481Z,7.44
2022-09-18T03:54:25.576Z,7.28
2022-09-18T03:55:25.730Z,7.28
2022-09-18T03:56:25.865Z,7.44
2022-09-18T03:57:26.027Z,7.44
2022-09-18T03:58:26.135Z,7.52
2022-09-18T03:59:26.283Z,7.44
2022-09-18T04:00:26.385Z,7.52
2022-09-18T04:01:26.495Z,7.52
2022-09-18T04:02:26.697Z,7.52
2022-09-18T04:03:26.793Z,7.52
2022-09-18T04:04:26.897Z,7.44
2022-09-18T04:05:27.042Z,7.44
2022-09-18T04:06:27.155Z,7.44
2022-09-18T04:07:27.285Z,7.28
2022-09-18T04:08:27.459Z,7.28
2022-09-18T04:09:27.556Z,7.28
2022-09-18T04:10:27.700Z,7.44
2022-09-18T04:11:27.852Z,7.44
2022-09-18T04:12:28.013Z,7.52
2022-09-18T04:13:28.171Z,7.52
2022-09-18T04:14:30.181Z,7.44
2022-09-18T04:15:28.466Z,7.6
2022-09-18T04:16:28.698Z,7.52
2022-09-18T04:17:28.721Z,7.52
2022-09-18T04:18:28.867Z,7.44
2022-09-18T04:19:29.023Z,7.44
2022-09-18T04:20:29.172Z,7.28
2022-09-18T04:21:29.275Z,7.44
2022-09-18T04:22:29.428Z,7.28
2022-09-18T04:23:29.547Z,7.28
2022-09-18T04:24:29.689Z,7.28
2022-09-18T04:25:29.834Z,7.44
2022-09-18T04:26:29.985Z,7.52
2022-09-18T04:27:30.137Z,7.28
2022-09-18T04:28:30.235Z,7.52
2022-09-18T04:29:30.345Z,7.52
2022-09-18T04:30:30.492Z,7.28
2022-09-18T04:31:30.747Z,7.2
2022-09-18T04:32:30.744Z,7.12
2022-09-18T04:33:30.909Z,7.12
2022-09-18T04:34:31.042Z,7.12
2022-09-18T04:35:31.147Z,7.2
2022-09-18T04:36:31.296Z,7.12
2022-09-18T04:37:31.402Z,7.04
2022-09-18T04:38:31.555Z,7.12
2022-09-18T04:39:31.696Z,7.12
2022-09-18T04:40:31.849Z,7.12
2022-09-18T04:41:31.957Z,7.04
2022-09-18T04:42:32.120Z,7.12
2022-09-18T04:43:32.298Z,7.04
2022-09-18T04:44:32.365Z,7.12
2022-09-18T04:45:32.468Z,7.2
2022-09-18T04:46:32.624Z,7.12
2022-09-18T04:47:32.660Z,7.04
2022-09-18T04:48:32.836Z,7.04
2022-09-18T04:49:32.974Z,7.12
2022-09-18T04:50:33.131Z,7.04
2022-09-18T04:51:33.231Z,7.12
2022-09-18T04:52:33.326Z,7.04
2022-09-18T04:53:33.465Z,7.04
2022-09-18T04:54:33.631Z,7.2
2022-09-18T04:55:33.786Z,7.2
2022-09-18T04:56:33.924Z,7.2
2022-09-18T04:57:34.045Z,7.44
2022-09-18T04:58:34.183Z,7.28
2022-09-18T04:59:34.334Z,7.2
2022-09-18T05:00:34.488Z,7.12
2022-09-18T05:01:34.603Z,7.12
2022-09-18T05:02:34.757Z,7.2
2022-09-18T05:03:34.901Z,7.12
2022-09-18T05:04:35.085Z,7.12
2022-09-18T05:05:35.335Z,7.2
2022-09-18T05:06:35.357Z,7.12
2022-09-18T05:07:35.486Z,7.2
2022-09-18T05:08:35.603Z,7.2
2022-09-18T05:09:35.709Z,7.28
2022-09-18T05:10:35.816Z,7.28
2022-09-18T05:11:35.961Z,7.44
2022-09-18T05:12:36.059Z,7.28
2022-09-18T05:13:36.212Z,7.2
2022-09-18T05:14:36.362Z,7.28
2022-09-18T05:15:36.524Z,7.28
2022-09-18T05:16:36.678Z,7.28
2022-09-18T05:17:36.767Z,7.28
2022-09-18T05:18:36.920Z,7.28
2022-09-18T05:19:37.076Z,7.28
2022-09-18T05:20:37.218Z,7.28
2022-09-18T05:21:37.315Z,7.44
2022-09-18T05:22:37.483Z,7.28
2022-09-18T05:23:37.642Z,7.52
2022-09-18T05:24:37.727Z,7.6
2022-09-18T05:25:37.900Z,7.84
2022-09-18T05:26:38.001Z,7.6
2022-09-18T05:27:38.131Z,7.44
2022-09-18T05:28:38.290Z,7.52
2022-09-18T05:29:38.450Z,7.52
2022-09-18T05:30:38.545Z,7.52
2022-09-18T05:31:38.720Z,7.52
2022-09-18T05:32:38.784Z,7.52
2022-09-18T05:33:38.884Z,7.52
2022-09-18T05:34:39.050Z,7.52
2022-09-18T05:35:39.202Z,7.52
2022-09-18T05:36:39.349Z,7.68
2022-09-18T05:37:39.498Z,7.6
2022-09-18T05:38:39.715Z,7.84
2022-09-18T05:39:39.807Z,7.68
2022-09-18T05:40:40.093Z,7.6
2022-09-18T05:41:40.122Z,7.68
2022-09-18T05:42:40.259Z,7.6
2022-09-18T05:43:40.363Z,7.68
2022-09-18T05:44:40.518Z,7.68
2022-09-18T05:45:40.666Z,7.6
2022-09-18T05:46:40.809Z,7.68
2022-09-18T05:47:40.915Z,7.68
2022-09-18T05:48:41.076Z,7.68
2022-09-18T05:49:41.227Z,7.68
2022-09-18T05:50:41.374Z,7.84
2022-09-18T05:51:41.516Z,8
2022-09-18T05:52:41.671Z,8
2022-09-18T05:53:41.840Z,8.08
2022-09-18T05:54:41.990Z,7.92
2022-09-18T05:55:42.094Z,7.84
2022-09-18T05:56:42.228Z,7.92
2022-09-18T05:57:42.394Z,7.84
2022-09-18T05:58:42.548Z,7.92
2022-09-18T05:59:42.646Z,8
2022-09-18T06:00:42.763Z,7.92
2022-09-18T06:01:46.923Z,7.92
2022-09-18T06:02:43.032Z,7.92
2022-09-18T06:03:43.093Z,8
2022-09-18T06:04:43.243Z,8.08
2022-09-18T06:05:43.359Z,8.08
2022-09-18T06:06:43.505Z,8
2022-09-18T06:07:43.656Z,8.08
2022-09-18T06:08:43.810Z,8.08
2022-09-18T06:09:43.955Z,8
2022-09-18T06:10:44.109Z,8
2022-09-18T06:11:44.272Z,7.92
2022-09-18T06:12:44.424Z,8
2022-09-18T06:13:44.523Z,8
2022-09-18T06:14:44.677Z,8
2022-09-18T06:15:44.886Z,8
2022-09-18T06:16:44.908Z,8
2022-09-18T06:17:44.979Z,8.08
2022-09-18T06:18:45.111Z,8.24
2022-09-18T06:19:45.279Z,8.24
2022-09-18T06:20:45.380Z,8.08
2022-09-18T06:21:45.535Z,8.32
2022-09-18T06:22:45.683Z,8.08
2022-09-18T06:23:45.834Z,8
2022-09-18T06:24:45.995Z,7.92
2022-09-18T06:25:46.187Z,7.92
2022-09-18T06:26:46.236Z,7.92
2022-09-18T06:27:46.616Z,7.92
2022-09-18T06:28:46.546Z,7.92
2022-09-18T06:29:46.697Z,7.92
2022-09-18T06:30:46.889Z,7.92
2022-09-18T06:31:47.029Z,8
2022-09-18T06:32:47.137Z,8.08
2022-09-18T06:33:47.296Z,8.08
2022-09-18T06:34:47.393Z,8.08
2022-09-18T06:35:47.558Z,8.08
2022-09-18T06:36:47.716Z,8.24
2022-09-18T06:37:47.856Z,8.24
2022-09-18T06:38:48.004Z,8.24
2022-09-18T06:39:48.113Z,8.32
2022-09-18T06:40:48.269Z,8.24
2022-09-18T06:41:48.417Z,8.32
2022-09-18T06:42:48.572Z,8.24
2022-09-18T06:43:48.717Z,8.32
2022-09-18T06:44:48.871Z,8.32
2022-09-18T06:45:48.961Z,8.48
2022-09-18T06:46:49.204Z,8.4
2022-09-18T06:47:49.276Z,8.48
2022-09-18T06:48:49.417Z,8.88
2022-09-18T06:49:49.602Z,8.639999
2022-09-18T06:50:49.721Z,8.48
2022-09-18T06:51:49.887Z,8.4
2022-09-18T06:52:50.048Z,8.24
2022-09-18T06:53:50.136Z,8.4
2022-09-18T06:54:50.312Z,8.32
2022-09-18T06:55:50.445Z,8.4
2022-09-18T06:56:50.581Z,8.4
2022-09-18T06:57:50.743Z,8.32
2022-09-18T06:58:50.848Z,8.48
2022-09-18T06:59:51.005Z,8.48
2022-09-18T07:00:51.216Z,8.48
2022-09-18T07:01:51.304Z,8.48
2022-09-18T07:02:51.403Z,8.48
2022-09-18T07:03:51.549Z,8.4
2022-09-18T07:04:51.710Z,8.4
2022-09-18T07:05:51.861Z,8.24
2022-09-18T07:06:51.957Z,8.24
2022-09-18T07:07:52.121Z,8.08
2022-09-18T07:08:52.211Z,8.08
2022-09-18T07:09:52.373Z,8.24
2022-09-18T07:10:52.471Z,8.08
2022-09-18T07:11:52.612Z,8.08
2022-09-18T07:12:52.770Z,8.24
2022-09-18T07:13:52.913Z,8.32
2022-09-18T07:14:53.074Z,8.4
2022-09-18T07:15:53.244Z,8.4
2022-09-18T07:16:53.274Z,8.72
2022-09-18T07:17:53.432Z,8.639999
2022-09-18T07:18:53.533Z,8.639999
2022-09-18T07:19:53.685Z,8.639999
2022-09-18T07:20:53.838Z,8.48
2022-09-18T07:21:53.981Z,8.639999
2022-09-18T07:22:54.143Z,8.639999
2022-09-18T07:23:54.297Z,8.72
2022-09-18T07:24:54.448Z,8.8
2022-09-18T07:25:54.602Z,8.72
2022-09-18T07:26:54.736Z,8.72
2022-09-18T07:27:54.906Z,8.72
2022-09-18T07:28:55.051Z,8.72
2022-09-18T07:29:55.158Z,8.8
2022-09-18T07:30:55.347Z,8.72
2022-09-18T07:31:55.400Z,8.8
2022-09-18T07:32:55.558Z,9.04
2022-09-18T07:33:55.706Z,8.88
2022-09-18T07:34:55.869Z,9.04
2022-09-18T07:35:56.016Z,9.12
2022-09-18T07:36:56.158Z,9.28
2022-09-18T07:37:56.313Z,9.28
2022-09-18T07:38:56.470Z,9.28
2022-09-18T07:39:56.633Z,9.36
2022-09-18T07:40:56.767Z,9.599999
2022-09-18T07:41:56.867Z,9.84
2022-09-18T07:42:57.030Z,9.92
2022-09-18T07:43:57.178Z,9.84
2022-09-18T07:44:57.326Z,9.92
2022-09-18T07:45:57.465Z,9.84
2022-09-18T07:46:58.061Z,10
2022-09-18T07:47:58.117Z,10
2022-09-18T07:48:57.927Z,10
2022-09-18T07:49:58.076Z,9.84
2022-09-18T07:50:58.238Z,9.92
2022-09-18T07:51:58.329Z,10
2022-09-18T07:52:58.426Z,10
2022-09-18T07:53:58.591Z,10.32
2022-09-18T07:54:58.743Z,10.24
2022-09-18T07:55:58.908Z,10.24
2022-09-18T07:56:59.055Z,10.32
2022-09-18T07:57:59.221Z,10.639999
2022-09-18T07:58:59.339Z,10.48
2022-09-18T07:59:59.507Z,10.32
2022-09-18T08:00:59.641Z,10.32
2022-09-18T08:01:59.856Z,10.4
2022-09-18T08:02:59.961Z,10.32
2022-09-18T08:04:00.107Z,10.4
2022-09-18T08:05:00.220Z,10.4
2022-09-18T08:06:00.360Z,10.48
2022-09-18T08:07:00.468Z,10.4
2022-09-18T08:08:00.612Z,10.32
2022-09-18T08:09:00.757Z,10.24
2022-09-18T08:10:00.916Z,10.24
2022-09-18T08:11:01.071Z,10.24
2022-09-18T08:12:01.226Z,10.24
2022-09-18T08:13:01.326Z,10.08
2022-09-18T08:14:01.471Z,10
2022-09-18T08:15:01.644Z,9.84
2022-09-18T08:16:01.796Z,9.599999
2022-09-18T08:17:01.886Z,9.84
2022-09-18T08:18:02.033Z,10
2022-09-18T08:19:02.183Z,10.32
2022-09-18T08:20:02.338Z,11.12
2022-09-18T08:21:02.823Z,11.52
2022-09-18T08:22:02.648Z,11.44
2022-09-18T08:23:02.794Z,11.28
2022-09-18T08:24:02.939Z,11.04
2022-09-18T08:25:03.045Z,11.28
2022-09-18T08:26:03.149Z,11.12
2022-09-18T08:27:03.311Z,11.2
2022-09-18T08:28:03.457Z,11.12
2022-09-18T08:29:03.600Z,10.639999
2022-09-18T08:30:03.708Z,10.48
2022-09-18T08:31:03.841Z,10.639999
2022-09-18T08:32:07.784Z,10.8
2022-09-18T08:33:04.068Z,10.88
2022-09-18T08:34:04.158Z,11.04
2022-09-18T08:35:04.302Z,10.88
2022-09-18T08:36:04.462Z,10.88
2022-09-18T08:37:04.560Z,11.04
2022-09-18T08:38:04.714Z,11.12
2022-09-18T08:39:04.872Z,11.2
2022-09-18T08:40:05.093Z,11.44
2022-09-18T08:41:05.174Z,11.599999
2022-09-18T08:42:05.321Z,12.719999
2022-09-18T08:43:05.482Z,13.44
2022-09-18T08:44:05.582Z,13.599999
2022-09-18T08:45:05.732Z,12.799999
2022-09-18T08:46:05.867Z,12.4
2022-09-18T08:47:06.112Z,12
2022-09-18T08:48:06.134Z,12
2022-09-18T08:49:06.296Z,12.32
2022-09-18T08:50:06.442Z,12.24
2022-09-18T08:51:06.550Z,12.24
2022-09-18T08:52:06.696Z,12.24
2022-09-18T08:53:06.794Z,12.08
2022-09-18T08:54:06.940Z,12.799999
2022-09-18T08:55:07.094Z,13.92
2022-09-18T08:56:07.250Z,14.48
2022-09-18T08:57:08.637Z,14.639999
2022-09-18T08:58:07.556Z,15.44
2022-09-18T08:59:07.704Z,15.599999
2022-09-18T09:00:07.863Z,15.04
2022-09-18T09:01:08.077Z,15.12
2022-09-18T09:02:08.211Z,14.639999
2022-09-18T09:03:08.308Z,14.48
2022-09-18T09:04:08.464Z,13.92
2022-09-18T09:05:08.614Z,13.28
2022-09-18T09:06:08.778Z,12.88
2022-09-18T09:07:08.930Z,12.639999
2022-09-18T09:08:09.026Z,12.639999
2022-09-18T09:09:13.536Z,12.719999
2022-09-18T09:10:09.327Z,12.639999
2022-09-18T09:11:09.419Z,12.88
2022-09-18T09:12:09.669Z,13.12
2022-09-18T09:13:09.728Z,14
2022-09-18T09:14:09.883Z,13.679999
2022-09-18T09:15:10.022Z,13.92
2022-09-18T09:16:10.206Z,14.08
2022-09-18T09:17:10.283Z,14.639999
2022-09-18T09:18:10.390Z,15.839999
2022-09-18T09:19:10.547Z,15.599999
2022-09-18T09:20:10.690Z,15.2
2022-09-18T09:21:11.842Z,14.4
2022-09-18T09:22:11.003Z,13.84
2022-09-18T09:23:11.142Z,13.679999
2022-09-18T09:24:11.314Z,13.92
2022-09-18T09:25:11.402Z,13.44
2022-09-18T09:26:11.564Z,14.24
2022-09-18T09:27:11.703Z,14.719999
2022-09-18T09:28:15.751Z,14.88
2022-09-18T09:29:12.011Z,15.44
2022-09-18T09:30:12.113Z,17.28
2022-09-18T09:31:12.281Z,18
2022-09-18T09:32:12.350Z,17.92
2022-09-18T09:33:12.454Z,17.68
2022-09-18T09:34:12.615Z,16.72
2022-09-18T09:35:12.723Z,17.68
2022-09-18T09:36:12.825Z,18.64
2022-09-18T09:37:12.966Z,18
2022-09-18T09:38:13.080Z,16.48
2022-09-18T09:39:13.220Z,16
2022-09-18T09:40:13.490Z,15.679999
2022-09-18T09:41:13.482Z,15.2
2022-09-18T09:42:13.627Z,14.639999
2022-09-18T09:43:13.790Z,14.88
2022-09-18T09:44:13.938Z,14.639999
2022-09-18T09:45:14.094Z,14.08
2022-09-18T09:46:17.015Z,14.48
2022-09-18T09:47:14.313Z,14.88
2022-09-18T09:48:14.438Z,15.12
2022-09-18T09:49:14.604Z,13.679999
2022-09-18T09:50:14.804Z,14.24
2022-09-18T09:51:14.895Z,14.32
2022-09-18T09:52:15.047Z,14.08
2022-09-18T09:53:15.202Z,14.08
2022-09-18T09:54:15.356Z,14.08
2022-09-18T09:55:15.504Z,14.799999
2022-09-18T09:56:15.659Z,14.88
2022-09-18T09:57:15.798Z,14.32
2022-09-18T09:58:15.965Z,14.24
2022-09-18T09:59:16.526Z,13.44
2022-09-18T10:00:16.841Z,13.44
2022-09-18T10:01:16.354Z,13.599999
2022-09-18T10:02:16.520Z,13.44
2022-09-18T10:03:16.559Z,13.599999
2022-09-18T10:04:16.658Z,13.2
2022-09-18T10:05:16.816Z,13.679999
2022-09-18T10:06:16.968Z,13.599999
2022-09-18T10:07:17.121Z,14
2022-09-18T10:08:17.272Z,14.719999
2022-09-18T10:09:17.426Z,14.24
2022-09-18T10:10:17.578Z,13.92
2022-09-18T10:11:17.729Z,14.08
2022-09-18T10:12:17.833Z,13.84
2022-09-18T10:13:17.976Z,13.44
2022-09-18T10:14:18.131Z,13.12
2022-09-18T10:15:18.293Z,12.719999
2022-09-18T10:16:18.477Z,12.48
2022-09-18T10:17:18.484Z,11.92
2022-09-18T10:18:18.596Z,11.28
2022-09-18T10:19:18.747Z,11.2
2022-09-18T10:20:18.898Z,11.28
2022-09-18T10:21:19.043Z,11.04
2022-09-18T10:22:19.148Z,11.52
2022-09-18T10:23:19.314Z,11.679999
2022-09-18T10:24:19.486Z,12
2022-09-18T10:25:19.602Z,13.28
2022-09-18T10:26:19.703Z,14.639999
2022-09-18T10:27:19.865Z,16.8
2022-09-18T10:28:20.011Z,16.72
2022-09-18T10:29:20.161Z,17.2
2022-09-18T10:30:20.317Z,14.88
2022-09-18T10:31:20.476Z,15.44
2022-09-18T10:32:20.604Z,14.719999
2022-09-18T10:33:20.755Z,14.4
2022-09-18T10:34:20.918Z,14.08
2022-09-18T10:35:21.072Z,13.44
2022-09-18T10:36:21.237Z,13.12
2022-09-18T10:37:21.378Z,12.88
2022-09-18T10:38:21.527Z,12.4
2022-09-18T10:39:21.677Z,11.679999
2022-09-18T10:40:21.840Z,11.52
2022-09-18T10:41:21.979Z,11.12
2022-09-18T10:42:22.135Z,11.2
2022-09-18T10:43:22.283Z,11.2
2022-09-18T10:44:22.446Z,11.44
2022-09-18T10:45:22.614Z,11.84
2022-09-18T10:46:22.818Z,12.08
2022-09-18T10:47:22.882Z,12.24
2022-09-18T10:48:23.046Z,12.639999
2022-09-18T10:49:23.221Z,13.599999
2022-09-18T10:50:23.360Z,13.52
2022-09-18T10:51:23.437Z,13.599999
2022-09-18T10:52:23.591Z,13.52
2022-09-18T10:53:23.754Z,13.04
2022-09-18T10:54:23.900Z,12.719999
2022-09-18T10:55:24.058Z,12.799999
2022-09-18T10:56:24.216Z,13.04
2022-09-18T10:57:24.299Z,12.639999
2022-09-18T10:58:24.448Z,12.48
2022-09-18T10:59:24.617Z,13.679999
2022-09-18T11:00:24.806Z,13.679999
2022-09-18T11:01:24.925Z,14.4
2022-09-18T11:02:25.109Z,14.48
2022-09-18T11:03:25.209Z,14.799999
2022-09-18T11:04:25.374Z,15.52
2022-09-18T11:05:25.525Z,15.04
2022-09-18T11:06:25.675Z,14.48
2022-09-18T11:07:26.084Z,14.4
2022-09-18T11:08:25.970Z,14.32
2022-09-18T11:09:26.151Z,14.24
2022-09-18T11:10:26.283Z,14.88
2022-09-18T11:11:26.429Z,15.599999
2022-09-18T11:12:26.538Z,15.599999
2022-09-18T11:13:26.676Z,14.799999
2022-09-18T11:14:26.784Z,15.04
2022-09-18T11:15:26.938Z,14.4
2022-09-18T11:16:27.380Z,14
2022-09-18T11:17:27.190Z,14.08
2022-09-18T11:18:27.343Z,14.32
2022-09-18T11:19:27.489Z,14
2022-09-18T11:20:27.646Z,14.08
2022-09-18T11:21:27.816Z,14.32
2022-09-18T11:22:27.959Z,14.639999
2022-09-18T11:23:28.118Z,14.48
2022-09-18T11:24:28.248Z,14.24
2022-09-18T11:25:28.414Z,13.52
2022-09-18T11:26:28.559Z,13.52
2022-09-18T11:27:28.718Z,13.44
2022-09-18T11:28:28.864Z,13.92
2022-09-18T11:29:29.004Z,14.32
2022-09-18T11:30:29.169Z,14.08
2022-09-18T11:31:29.379Z,13.84
2022-09-18T11:32:29.423Z,13.679999
2022-09-18T11:33:29.556Z,13.92
2022-09-18T11:34:29.725Z,14.24
2022-09-18T11:35:29.873Z,13.92
2022-09-18T11:36:29.978Z,13.92
2022-09-18T11:37:30.129Z,14.08
2022-09-18T11:38:30.271Z,13.679999
2022-09-18T11:39:30.441Z,13.2
2022-09-18T11:40:30.664Z,13.2
2022-09-18T11:41:30.756Z,13.12
2022-09-18T11:42:30.882Z,12.88
2022-09-18T11:43:31.024Z,12.88
2022-09-18T11:44:31.185Z,12.48
2022-09-18T11:45:31.353Z,12.32
2022-09-18T11:46:31.519Z,12.24
2022-09-18T11:47:31.629Z,12.32
2022-09-18T11:48:31.797Z,12.639999
2022-09-18T11:49:31.901Z,12.48
2022-09-18T11:50:31.992Z,12.48
2022-09-18T11:51:32.144Z,12.719999
2022-09-18T11:52:32.298Z,12.719999
2022-09-18T11:53:32.407Z,12.719999
2022-09-18T11:54:32.561Z,12.639999
2022-09-18T11:55:32.701Z,12.32
2022-09-18T11:56:32.868Z,12.08
2022-09-18T11:57:32.968Z,12.32
2022-09-18T11:58:33.052Z,12.639999
2022-09-18T11:59:33.177Z,12.48
2022-09-18T12:00:33.327Z,12.24
2022-09-18T12:01:33.461Z,12
2022-09-18T12:02:33.654Z,11.92
2022-09-18T12:03:33.762Z,12
2022-09-18T12:04:33.873Z,11.84
2022-09-18T12:05:34.026Z,11.92
2022-09-18T12:06:34.127Z,11.84
2022-09-18T12:07:36.740Z,11.599999
2022-09-18T12:08:33.019Z,11.52
2022-09-18T12:09:33.182Z,11.52
2022-09-18T12:10:33.325Z,11.679999
2022-09-18T12:11:33.476Z,12
2022-09-18T12:12:33.628Z,12.32
2022-09-18T12:13:33.792Z,12.24
2022-09-18T12:14:33.933Z,12.4
2022-09-18T12:15:34.104Z,12.48
2022-09-18T12:16:34.262Z,12.4
2022-09-18T12:17:34.269Z,12.4
2022-09-18T12:18:34.436Z,12.24
2022-09-18T12:19:34.588Z,12.4
2022-09-18T12:20:34.739Z,12.24
2022-09-18T12:21:34.896Z,12.48
2022-09-18T12:22:35.003Z,12.48
2022-09-18T12:23:35.144Z,12.719999
2022-09-18T12:24:35.290Z,12.719999
2022-09-18T12:25:35.436Z,12.4
2022-09-18T12:26:35.591Z,12.32
2022-09-18T12:27:35.698Z,12.4
2022-09-18T12:28:35.841Z,12.24
2022-09-18T12:29:35.994Z,12.08
2022-09-18T12:30:36.154Z,12.08
2022-09-18T12:31:36.442Z,12
2022-09-18T12:32:36.388Z,11.92
2022-09-18T12:33:36.558Z,11.84
2022-09-18T12:34:36.655Z,12
2022-09-18T12:35:36.800Z,11.92
2022-09-18T12:36:36.906Z,12
2022-09-18T12:37:37.002Z,12
2022-09-18T12:38:37.154Z,12
2022-09-18T12:39:37.923Z,11.92
2022-09-18T12:40:38.526Z,11.84
2022-09-18T12:41:38.562Z,11.599999
2022-09-18T12:42:38.745Z,11.52
2022-09-18T12:43:38.811Z,11.599999
2022-09-18T12:44:38.615Z,11.44
2022-09-18T12:45:38.965Z,11.599999
2022-09-18T12:46:38.876Z,11.599999
2022-09-18T12:47:38.982Z,11.52
2022-09-18T12:48:39.125Z,11.599999
2022-09-18T12:49:39.277Z,11.44
2022-09-18T12:50:39.374Z,11.52
2022-09-18T12:51:39.540Z,11.28
2022-09-18T12:52:50.772Z,11.44
2022-09-18T12:53:39.791Z,11.2
2022-09-18T12:54:39.900Z,11.52
2022-09-18T12:55:39.989Z,11.599999
2022-09-18T12:56:40.134Z,11.679999
2022-09-18T12:57:40.988Z,11.599999
2022-09-18T12:58:40.447Z,11.92
2022-09-18T12:59:40.591Z,12.24
2022-09-18T13:00:40.756Z,12.24
2022-09-18T13:01:40.885Z,12.08
2022-09-18T13:02:41.116Z,12.08
2022-09-18T13:03:41.197Z,12
2022-09-18T13:04:41.347Z,11.92
2022-09-18T13:05:41.499Z,11.84
2022-09-18T13:06:41.646Z,11.84
2022-09-18T13:07:41.809Z,11.599999